createdAt,value
2023-04-26T00:02:41.640Z,37.27
2023-04-26T00:07:43.748Z,36.84
2023-04-26T00:12:45.652Z,36.71
2023-04-26T00:17:47.596Z,36.28
2023-04-26T00:22:50.787Z,36.59
2023-04-26T00:27:52.737Z,37.02
2023-04-26T00:32:54.740Z,36.87
2023-04-26T00:37:56.666Z,37.92
2023-04-26T00:42:59.048Z,36.52
2023-04-26T00:48:02.567Z,39.40
2023-04-26T00:53:04.713Z,39.34
2023-04-26T00:58:06.463Z,39.39
2023-04-26T01:03:08.492Z,38.16
2023-04-26T01:08:10.741Z,37.49
2023-04-26T01:13:13.630Z,36.89
2023-04-26T01:18:15.456Z,37.68
2023-04-26T01:23:17.234Z,38.96
2023-04-26T01:28:19.025Z,39.06
2023-04-26T01:33:21.194Z,39.12
2023-04-26T01:38:22.927Z,39.70
2023-04-26T01:43:24.643Z,38.14
2023-04-26T01:48:26.429Z,37.74
2023-04-26T01:53:28.278Z,39.23
2023-04-26T01:58:30.411Z,37.80
2023-04-26T02:03:32.288Z,37.24
2023-04-26T02:08:34.339Z,37.51
2023-04-26T02:13:36.093Z,37.11
2023-04-26T02:18:37.896Z,36.87
2023-04-26T02:23:40.773Z,36.76
2023-04-26T02:28:44.423Z,36.89
2023-04-26T02:33:46.426Z,36.82
2023-04-26T02:38:48.266Z,37.70
2023-04-26T02:43:50.055Z,37.56
2023-04-26T02:48:52.264Z,37.49
2023-04-26T02:53:54.346Z,37.46
2023-04-26T02:58:56.607Z,37.04
2023-04-26T03:03:58.433Z,37.11
2023-04-26T03:09:00.354Z,37.18
2023-04-26T03:14:02.528Z,36.56
2023-04-26T03:19:05.557Z,37.66
2023-04-26T03:24:07.806Z,38.53
2023-04-26T03:29:09.594Z,39.10
2023-04-26T03:34:11.991Z,37.82
2023-04-26T03:39:14.032Z,38.46
2023-04-26T03:44:16.202Z,39.33
2023-04-26T03:49:18.173Z,37.52
2023-04-26T03:54:20.073Z,39.35
2023-04-26T03:59:21.907Z,38.51
2023-04-26T04:04:24.105Z,38.03
2023-04-26T04:09:26.562Z,38.17
2023-04-26T04:14:29.104Z,39.82
2023-04-26T04:19:31.617Z,38.81
2023-04-26T04:24:34.461Z,38.16
2023-04-26T04:29:36.458Z,37.32
2023-04-26T04:34:39.419Z,37.42
2023-04-26T04:39:41.649Z,39.61
2023-04-26T04:44:43.716Z,37.87
2023-04-26T04:49:45.856Z,38.01
2023-04-26T04:54:48.482Z,38.25
2023-04-26T04:59:51.245Z,37.22
2023-04-26T05:04:53.919Z,37.37
2023-04-26T05:09:56.466Z,37.22
2023-04-26T05:14:58.452Z,36.80
2023-04-26T05:20:03.859Z,36.89
2023-04-26T05:25:07.992Z,37.45
2023-04-26T05:30:10.257Z,37.83
2023-04-26T05:35:25.330Z,38.74
2023-04-26T05:40:28.268Z,38.10
2023-04-26T05:45:30.665Z,37.87
2023-04-26T05:50:34.021Z,38.05
2023-04-26T05:55:36.962Z,38.30
2023-04-26T06:00:39.451Z,37.12
2023-04-26T06:05:42.375Z,37.38
2023-04-26T06:10:44.439Z,37.64
2023-04-26T06:15:46.455Z,36.82
2023-04-26T06:20:48.837Z,36.11
2023-04-26T06:25:50.833Z,36.10
2023-04-26T06:30:52.843Z,36.89
2023-04-26T06:35:55.039Z,38.27
2023-04-26T06:40:57.004Z,37.69
2023-04-26T06:45:59.015Z,38.09
2023-04-26T06:51:05.767Z,37.90
2023-04-26T06:56:07.719Z,38.85
2023-04-26T07:01:10.119Z,37.91
2023-04-26T07:06:11.922Z,37.19
2023-04-26T07:11:14.009Z,38.08
2023-04-26T07:16:16.059Z,37.98
2023-04-26T07:21:17.949Z,37.01
2023-04-26T07:26:19.846Z,38.33
2023-04-26T07:31:21.832Z,36.96
2023-04-26T07:36:25.049Z,36.64
2023-04-26T07:41:27.156Z,38.19
2023-04-26T07:46:29.010Z,43.47
2023-04-26T07:51:31.706Z,46.36
2023-04-26T07:56:33.605Z,44.28
2023-04-26T08:01:35.530Z,46.17
2023-04-26T08:06:38.881Z,49.22
2023-04-26T08:11:41.975Z,52.70
2023-04-26T08:16:44.405Z,48.06
2023-04-26T08:21:46.295Z,47.97
2023-04-26T08:26:48.215Z,50.29
2023-04-26T08:31:50.068Z,50.94
2023-04-26T08:36:51.927Z,50.30
2023-04-26T08:41:55.421Z,50.96
2023-04-26T08:47:06.699Z,49.83
2023-04-26T08:52:11.594Z,48.77
2023-04-26T08:57:13.667Z,44.40
2023-04-26T09:02:19.131Z,43.15
2023-04-26T09:07:23.677Z,42.73
2023-04-26T09:12:26.338Z,44.10
2023-04-26T09:17:33.515Z,41.69
2023-04-26T09:22:36.826Z,40.26
2023-04-26T09:27:46.306Z,40.73
2023-04-26T09:32:55.928Z,40.88
2023-04-26T09:38:12.188Z,38.79
2023-04-26T09:43:18.233Z,42.03
2023-04-26T09:48:22.783Z,44.36
2023-04-26T09:53:37.908Z,42.32
2023-04-26T09:58:58.311Z,40.43
2023-04-26T10:04:02.240Z,39.09
2023-04-26T10:09:05.598Z,44.25
2023-04-26T10:14:07.678Z,38.96
2023-04-26T10:19:10.464Z,38.14
2023-04-26T10:24:12.498Z,42.43
2023-04-26T10:29:14.374Z,39.43
2023-04-26T10:34:21.113Z,39.22
2023-04-26T10:39:23.412Z,42.59
2023-04-26T10:44:40.088Z,36.09
2023-04-26T10:49:47.034Z,37.80
2023-04-26T10:54:49.997Z,36.63
2023-04-26T11:00:17.164Z,41.11
2023-04-26T11:05:54.616Z,35.96
2023-04-26T11:11:09.966Z,38.19
2023-04-26T11:16:13.742Z,35.77
2023-04-26T11:21:18.875Z,39.04
2023-04-26T11:26:20.767Z,40.85
2023-04-26T11:31:22.744Z,41.90
2023-04-26T11:36:25.044Z,43.70
2023-04-26T11:41:27.267Z,38.89
2023-04-26T11:46:29.368Z,36.38
2023-04-26T11:51:32.311Z,38.99
2023-04-26T11:56:34.256Z,38.55
2023-04-26T12:01:36.307Z,39.94
2023-04-26T12:06:46.824Z,34.85
2023-04-26T12:11:53.418Z,36.59
2023-04-26T12:16:55.507Z,36.54
2023-04-26T12:21:57.549Z,38.47
2023-04-26T12:27:01.637Z,36.06
2023-04-26T12:32:04.558Z,36.66
2023-04-26T12:37:06.626Z,34.75
2023-04-26T12:42:08.565Z,34.01
2023-04-26T12:47:10.535Z,37.06
2023-04-26T12:52:12.476Z,36.41
2023-04-26T12:57:14.661Z,36.93
2023-04-26T13:02:17.579Z,34.94
2023-04-26T13:07:20.191Z,32.60
2023-04-26T13:12:22.130Z,32.89
2023-04-26T13:17:26.533Z,33.40
2023-04-26T13:22:28.485Z,34.79
2023-04-26T13:27:31.758Z,34.00
2023-04-26T13:32:34.125Z,30.44
2023-04-26T13:37:36.252Z,30.22
2023-04-26T13:42:38.803Z,30.61
2023-04-26T13:47:40.860Z,30.73
2023-04-26T13:52:42.718Z,30.44
2023-04-26T13:57:44.570Z,30.56
2023-04-26T14:02:46.658Z,30.14
2023-04-26T14:07:48.613Z,28.56
2023-04-26T14:12:50.636Z,29.47
2023-04-26T14:17:52.484Z,28.70
2023-04-26T14:22:54.306Z,27.39
2023-04-26T14:27:56.279Z,27.49
2023-04-26T14:32:58.109Z,27.40
2023-04-26T14:37:59.896Z,26.98
2023-04-26T14:43:01.747Z,26.55
2023-04-26T14:48:03.859Z,24.82
2023-04-26T14:53:05.804Z,22.89
2023-04-26T14:58:07.985Z,23.62
2023-04-26T15:03:09.940Z,23.89
2023-04-26T15:08:12.246Z,22.89
2023-04-26T15:13:14.131Z,24.85
2023-04-26T15:18:16.077Z,22.66
2023-04-26T15:23:18.211Z,24.32
2023-04-26T15:28:20.472Z,23.66
2023-04-26T15:33:22.385Z,23.54
2023-04-26T15:38:24.330Z,22.65
2023-04-26T15:43:26.748Z,20.33
2023-04-26T15:48:28.609Z,19.99
2023-04-26T15:53:30.560Z,18.83
2023-04-26T15:58:32.621Z,20.79
2023-04-26T16:03:34.605Z,18.39
2023-04-26T16:08:40.298Z,16.46
2023-04-26T16:13:51.951Z,16.91
2023-04-26T16:18:53.941Z,16.99
2023-04-26T16:24:00.201Z,16.50
2023-04-26T16:29:04.397Z,16.69
2023-04-26T16:34:06.869Z,16.61
2023-04-26T16:39:08.751Z,17.20
2023-04-26T16:44:11.206Z,16.45
2023-04-26T16:49:13.143Z,17.96
2023-04-26T16:54:15.116Z,18.20
2023-04-26T16:59:17.085Z,16.72
2023-04-26T17:04:19.167Z,15.57
2023-04-26T17:09:21.400Z,17.02
2023-04-26T17:14:23.360Z,18.18
2023-04-26T17:19:26.000Z,18.75
2023-04-26T17:24:27.873Z,18.62
2023-04-26T17:29:29.767Z,19.36
2023-04-26T17:34:32.352Z,20.25
2023-04-26T17:39:34.352Z,20.03
2023-04-26T17:44:36.339Z,19.36
2023-04-26T17:49:38.213Z,19.33
2023-04-26T17:54:40.084Z,19.61
2023-04-26T17:59:42.436Z,20.76
2023-04-26T18:04:45.378Z,20.15
2023-04-26T18:09:47.725Z,19.65
2023-04-26T18:14:49.564Z,20.83
2023-04-26T18:19:51.549Z,20.54
2023-04-26T18:24:53.425Z,21.28
2023-04-26T18:29:55.308Z,20.43
2023-04-26T18:34:57.250Z,19.45
2023-04-26T18:39:59.216Z,20.08
2023-04-26T18:45:02.108Z,20.79
2023-04-26T18:50:05.765Z,20.77
2023-04-26T18:55:08.050Z,20.20
2023-04-26T19:00:10.779Z,21.61
2023-04-26T19:05:15.405Z,19.86
2023-04-26T19:10:17.299Z,21.65
2023-04-26T19:15:19.143Z,20.87
2023-04-26T19:20:21.034Z,25.08
2023-04-26T19:25:23.413Z,23.91
2023-04-26T19:30:25.207Z,25.45
2023-04-26T19:35:27.009Z,23.80
2023-04-26T19:40:28.947Z,22.72
2023-04-26T19:45:30.889Z,23.46
2023-04-26T19:50:32.736Z,25.39
2023-04-26T19:55:34.526Z,24.79
2023-04-26T20:00:36.548Z,24.73
2023-04-26T20:05:38.361Z,23.83
2023-04-26T20:10:41.732Z,26.39
2023-04-26T20:15:43.807Z,25.91
2023-04-26T20:20:47.761Z,27.57
2023-04-26T20:25:50.958Z,25.93
2023-04-26T20:30:53.229Z,25.04
2023-04-26T20:35:55.020Z,25.01
2023-04-26T20:40:57.293Z,26.19
2023-04-26T20:45:59.211Z,27.10
2023-04-26T20:51:02.023Z,25.65
2023-04-26T20:56:03.878Z,25.74
2023-04-26T21:01:07.316Z,26.00
2023-04-26T21:06:09.400Z,25.32
2023-04-26T21:11:11.259Z,26.81
2023-04-26T21:16:13.111Z,26.36
2023-04-26T21:21:15.007Z,27.27
2023-04-26T21:26:16.826Z,27.46
2023-04-26T21:31:18.957Z,26.80
2023-04-26T21:36:21.002Z,26.71
2023-04-26T21:41:23.642Z,27.57
2023-04-26T21:46:26.322Z,27.00
2023-04-26T21:51:28.258Z,27.75
2023-04-26T21:56:30.058Z,27.98
2023-04-26T22:01:32.047Z,28.38
2023-04-26T22:06:34.276Z,28.66
2023-04-26T22:11:36.531Z,28.61
2023-04-26T22:16:38.368Z,29.99
2023-04-26T22:21:40.158Z,29.41
2023-04-26T22:26:41.970Z,28.46
2023-04-26T22:31:43.817Z,28.82
2023-04-26T22:36:46.244Z,29.92
2023-04-26T22:41:48.008Z,29.58
2023-04-26T22:46:49.925Z,33.07
2023-04-26T22:52:04.318Z,31.89
2023-04-26T22:57:11.502Z,29.85
2023-04-26T23:02:15.405Z,29.93
2023-04-26T23:07:17.305Z,30.61
2023-04-26T23:12:20.207Z,30.79
2023-04-26T23:17:22.531Z,29.85
2023-04-26T23:22:24.365Z,29.96
2023-04-26T23:27:26.205Z,31.93
2023-04-26T23:32:27.972Z,32.08
2023-04-26T23:37:29.911Z,30.88
2023-04-26T23:42:31.681Z,33.41
2023-04-26T23:47:33.580Z,31.05
2023-04-26T23:52:35.558Z,30.88
2023-04-26T23:57:37.297Z,32.97
